Time;durP1;ratioP1;P1;durP2;ratioP2;P2;SDS_P1;SDS_P2;PMS_P1;PMS_P2;Temp;Humidity;BMP_temperature;BMP_pressure;BME280_temperature;BME280_humidity;BME280_pressure;Samples;Min_cycle;Max_cycle;Signal;HPM_P1;HPM_P2
2023/06/19 00:02:12;;;;;;;17.70;11.20;;;;;;;;;;107098;1250;61115;-79
2023/06/19 00:04:39;;;;;;;15.90;11.10;;;;;;;;;;107085;1251;61252;-79
2023/06/19 00:07:05;;;;;;;16.10;10.90;;;;;;;;;;107147;1251;61326;-79
2023/06/19 00:09:32;;;;;;;18.00;12.00;;;;;;;;;;107110;1250;61276;-80
2023/06/19 00:11:59;;;;;;;15.00;10.80;;;;;;;;;;107043;1251;61151;-80
2023/06/19 00:14:26;;;;;;;15.50;10.60;;;;;;;;;;107098;1251;62805;-79
2023/06/19 00:16:52;;;;;;;13.50;10.70;;;;;;;;;;107091;1251;61317;-80
2023/06/19 00:19:18;;;;;;;13.00;10.40;;;;;;;;;;107108;1250;61150;-80
2023/06/19 00:21:45;;;;;;;16.40;11.30;;;;;;;;;;107058;1254;59948;-79
2023/06/19 00:24:12;;;;;;;13.10;10.20;;;;;;;;;;107032;1252;62109;-81
2023/06/19 00:26:39;;;;;;;15.30;10.50;;;;;;;;;;107041;1252;61350;-81
2023/06/19 00:29:07;;;;;;;12.90;10.20;;;;;;;;;;106985;1253;61221;-79
2023/06/19 00:31:37;;;;;;;16.40;11.20;;;;;;;;;;106968;1253;61432;-82
2023/06/19 00:34:03;;;;;;;12.80;10.50;;;;;;;;;;107047;1251;61254;-78
2023/06/19 00:36:29;;;;;;;14.50;10.60;;;;;;;;;;107070;1253;61321;-81
2023/06/19 00:38:56;;;;;;;15.10;10.90;;;;;;;;;;107061;1252;61360;-80
2023/06/19 00:41:22;;;;;;;14.00;10.10;;;;;;;;;;106450;1253;61988;-78
2023/06/19 00:43:49;;;;;;;14.90;10.60;;;;;;;;;;106952;1252;61318;-82
2023/06/19 00:46:15;;;;;;;15.40;11.70;;;;;;;;;;107029;1251;61337;-82
2023/06/19 00:48:42;;;;;;;14.60;10.40;;;;;;;;;;107043;1254;61331;-81
2023/06/19 00:51:08;;;;;;;14.60;11.30;;;;;;;;;;107143;1254;61287;-78
2023/06/19 00:53:34;;;;;;;13.10;10.50;;;;;;;;;;107081;1254;61343;-79
2023/06/19 00:56:01;;;;;;;13.50;10.40;;;;;;;;;;107091;1251;61259;-79
2023/06/19 00:58:27;;;;;;;16.00;10.40;;;;;;;;;;107053;1254;61355;-80
2023/06/19 01:00:54;;;;;;;14.60;11.10;;;;;;;;;;106504;1251;61247;-80
2023/06/19 01:03:20;;;;;;;13.00;9.90;;;;;;;;;;106522;1251;61224;-81
2023/06/19 01:05:47;;;;;;;17.10;10.80;;;;;;;;;;106518;1254;61141;-81
2023/06/19 01:08:13;;;;;;;14.90;11.40;;;;;;;;;;106516;1251;61407;-81
2023/06/19 01:10:41;;;;;;;14.50;11.50;;;;;;;;;;107607;1251;61252;-81
2023/06/19 01:13:12;;;;;;;14.80;10.40;;;;;;;;;;106501;1254;61320;-79
2023/06/19 01:15:39;;;;;;;15.10;10.30;;;;;;;;;;106532;1254;62879;-79
2023/06/19 01:18:05;;;;;;;14.20;10.00;;;;;;;;;;107119;1254;61215;-80
2023/06/19 01:20:33;;;;;;;16.30;10.50;;;;;;;;;;106538;1251;61333;-80
2023/06/19 01:23:09;;;;;;;13.70;10.70;;;;;;;;;;106428;1253;61350;-81
2023/06/19 01:25:36;;;;;;;16.60;11.50;;;;;;;;;;106474;1253;61289;-80
2023/06/19 01:28:04;;;;;;;16.20;11.90;;;;;;;;;;106414;1253;61213;-79
2023/06/19 01:30:30;;;;;;;13.60;10.40;;;;;;;;;;107121;1252;61253;-79
2023/06/19 01:32:59;;;;;;;14.30;10.40;;;;;;;;;;107029;1251;61360;-79
2023/06/19 01:35:27;;;;;;;13.90;9.90;;;;;;;;;;107142;1253;61286;-81
2023/06/19 01:37:54;;;;;;;18.20;11.40;;;;;;;;;;107027;1252;61084;-80
2023/06/19 01:40:25;;;;;;;12.90;9.80;;;;;;;;;;106996;1255;59098;-79
2023/06/19 01:42:52;;;;;;;13.20;9.80;;;;;;;;;;107358;1253;61288;-79
2023/06/19 01:45:19;;;;;;;15.70;10.70;;;;;;;;;;107031;1252;61231;-79
2023/06/19 01:47:45;;;;;;;16.30;9.90;;;;;;;;;;106961;1253;61338;-81
2023/06/19 01:50:11;;;;;;;15.50;11.10;;;;;;;;;;106552;1251;61327;-80
2023/06/19 01:52:38;;;;;;;15.10;12.00;;;;;;;;;;106488;1254;61320;-80
2023/06/19 01:55:05;;;;;;;18.30;10.90;;;;;;;;;;106496;1254;62272;-81
2023/06/19 01:57:31;;;;;;;15.90;11.40;;;;;;;;;;106482;1251;61272;-80
2023/06/19 01:59:58;;;;;;;13.70;10.80;;;;;;;;;;106479;1252;61260;-79
2023/06/19 02:02:24;;;;;;;13.90;10.30;;;;;;;;;;106425;1253;61353;-81
2023/06/19 02:04:50;;;;;;;13.00;10.70;;;;;;;;;;106445;1253;61351;-79
2023/06/19 02:07:17;;;;;;;15.50;11.00;;;;;;;;;;106414;1253;61408;-81
2023/06/19 02:09:43;;;;;;;14.50;10.60;;;;;;;;;;106489;1255;61335;-79
2023/06/19 02:12:10;;;;;;;16.30;10.70;;;;;;;;;;106442;1253;61330;-79
2023/06/19 02:14:36;;;;;;;16.80;11.70;;;;;;;;;;106431;1253;61381;-81
2023/06/19 02:17:03;;;;;;;17.40;10.60;;;;;;;;;;106992;1255;61031;-81
2023/06/19 02:19:29;;;;;;;14.70;10.20;;;;;;;;;;106960;1253;61288;-79
2023/06/19 02:21:56;;;;;;;14.10;10.30;;;;;;;;;;107028;1256;61694;-80
2023/06/19 02:24:22;;;;;;;14.30;10.50;;;;;;;;;;107033;1253;61278;-79
2023/06/19 02:26:48;;;;;;;16.50;10.30;;;;;;;;;;108730;1251;59246;-79
2023/06/19 02:29:15;;;;;;;14.30;10.30;;;;;;;;;;107337;1253;61164;-79
2023/06/19 02:31:42;;;;;;;14.60;10.40;;;;;;;;;;106941;1253;63385;-79
2023/06/19 02:34:09;;;;;;;12.60;9.90;;;;;;;;;;106913;1253;61312;-78
2023/06/19 02:36:35;;;;;;;13.10;10.80;;;;;;;;;;106932;1253;61652;-80
2023/06/19 02:39:03;;;;;;;23.00;11.80;;;;;;;;;;106978;1253;61339;-81
2023/06/19 02:41:30;;;;;;;14.00;9.80;;;;;;;;;;106983;1255;62846;-81
2023/06/19 02:43:56;;;;;;;12.80;9.80;;;;;;;;;;106957;1253;61472;-79
2023/06/19 02:46:23;;;;;;;15.80;11.10;;;;;;;;;;106895;1255;61224;-80
2023/06/19 02:48:49;;;;;;;14.10;10.60;;;;;;;;;;106996;1251;61304;-79
2023/06/19 02:51:15;;;;;;;13.60;10.40;;;;;;;;;;107072;1251;61282;-79
2023/06/19 02:53:43;;;;;;;14.50;10.40;;;;;;;;;;107091;1251;63403;-80
2023/06/19 02:56:11;;;;;;;13.00;10.30;;;;;;;;;;107099;1251;61266;-79
2023/06/19 02:58:38;;;;;;;13.00;10.40;;;;;;;;;;107027;1251;61139;-79
2023/06/19 03:01:06;;;;;;;13.40;10.20;;;;;;;;;;107120;1251;61349;-79
2023/06/19 03:03:37;;;;;;;12.40;10.40;;;;;;;;;;107085;1251;61234;-80
2023/06/19 03:06:06;;;;;;;13.10;10.60;;;;;;;;;;107080;1256;63131;-80
2023/06/19 03:08:36;;;;;;;12.50;10.70;;;;;;;;;;106529;1251;61297;-80
2023/06/19 03:11:05;;;;;;;13.80;10.50;;;;;;;;;;106449;1255;62201;-80
2023/06/19 03:13:31;;;;;;;;;;;;;;;;;;106477;1257;61332;-81
2023/06/19 03:15:58;;;;;;;21.50;9.40;;;;;;;;;;106465;1255;61445;-79
2023/06/19 03:18:24;;;;;;;14.50;11.20;;;;;;;;;;106487;1256;61378;-80
2023/06/19 03:20:51;;;;;;;18.60;11.90;;;;;;;;;;106530;1251;61223;-79
2023/06/19 03:23:17;;;;;;;22.70;12.40;;;;;;;;;;106417;1253;62945;-79
2023/06/19 03:25:43;;;;;;;14.30;11.30;;;;;;;;;;106978;1253;63468;-80
2023/06/19 03:28:10;;;;;;;18.00;11.20;;;;;;;;;;107036;1255;61333;-81
2023/06/19 03:30:36;;;;;;;17.40;11.10;;;;;;;;;;106930;1253;61307;-79
2023/06/19 03:33:03;;;;;;;17.30;10.70;;;;;;;;;;106960;1255;61236;-79
2023/06/19 03:35:29;;;;;;;16.70;11.80;;;;;;;;;;107020;1253;61223;-79
2023/06/19 03:37:55;;;;;;;17.60;11.40;;;;;;;;;;106999;1252;61337;-81
2023/06/19 03:40:22;;;;;;;18.10;11.10;;;;;;;;;;106968;1253;61350;-79
2023/06/19 03:42:49;;;;;;;18.60;13.90;;;;;;;;;;107063;1253;63409;-79
2023/06/19 03:45:15;;;;;;;12.70;10.60;;;;;;;;;;106944;1253;61392;-79
2023/06/19 03:47:42;;;;;;;14.90;10.20;;;;;;;;;;107010;1253;61158;-80
2023/06/19 03:50:09;;;;;;;13.90;11.20;;;;;;;;;;107065;1253;61259;-78
2023/06/19 03:52:36;;;;;;;14.90;10.50;;;;;;;;;;107048;1256;61199;-79
2023/06/19 03:55:03;;;;;;;14.20;10.60;;;;;;;;;;107000;1251;63093;-81
2023/06/19 03:57:30;;;;;;;11.60;9.80;;;;;;;;;;106576;1251;61323;-78
2023/06/19 03:59:56;;;;;;;14.60;10.80;;;;;;;;;;107090;1255;61422;-80
2023/06/19 04:02:22;;;;;;;14.20;9.00;;;;;;;;;;107049;1251;62026;-81
2023/06/19 04:04:49;;;;;;;12.30;9.70;;;;;;;;;;107068;1251;61096;-78
2023/06/19 04:07:15;;;;;;;17.70;10.80;;;;;;;;;;107063;1254;61339;-81
2023/06/19 04:09:42;;;;;;;13.20;10.10;;;;;;;;;;106497;1251;61377;-81
2023/06/19 04:12:08;;;;;;;12.60;9.40;;;;;;;;;;106464;1254;61856;-82
2023/06/19 04:14:35;;;;;;;13.30;10.20;;;;;;;;;;106573;1255;61347;-81
2023/06/19 04:17:02;;;;;;;20.20;9.90;;;;;;;;;;106496;1255;61307;-79
2023/06/19 04:19:28;;;;;;;11.40;9.00;;;;;;;;;;107140;1251;61335;-79
2023/06/19 04:21:54;;;;;;;16.90;10.90;;;;;;;;;;107052;1253;62364;-80
2023/06/19 04:24:21;;;;;;;13.50;10.50;;;;;;;;;;106991;1253;61366;-79
2023/06/19 04:26:47;;;;;;;15.10;10.60;;;;;;;;;;106962;1253;61286;-82
2023/06/19 04:29:16;;;;;;;15.10;10.90;;;;;;;;;;107026;1252;61341;-79
2023/06/19 04:31:46;;;;;;;12.10;10.20;;;;;;;;;;106961;1253;61853;-78
2023/06/19 04:34:16;;;;;;;19.40;10.50;;;;;;;;;;106990;1255;61178;-79
2023/06/19 04:36:43;;;;;;;12.70;8.80;;;;;;;;;;106931;1253;61230;-80
2023/06/19 04:39:10;;;;;;;14.30;10.10;;;;;;;;;;106982;1252;61327;-80
2023/06/19 04:41:38;;;;;;;14.50;10.90;;;;;;;;;;107004;1255;61089;-81
2023/06/19 04:44:05;;;;;;;12.60;9.70;;;;;;;;;;106959;1253;61891;-82
2023/06/19 04:46:31;;;;;;;14.80;9.90;;;;;;;;;;107014;1253;61153;-78
2023/06/19 04:48:57;;;;;;;15.10;11.50;;;;;;;;;;106991;1251;61198;-81
2023/06/19 04:51:24;;;;;;;18.10;10.40;;;;;;;;;;107057;1256;61909;-79
2023/06/19 04:53:50;;;;;;;14.70;9.80;;;;;;;;;;107047;1254;61346;-81
2023/06/19 04:56:17;;;;;;;12.50;9.40;;;;;;;;;;107054;1255;61332;-81
2023/06/19 04:58:47;;;;;;;12.70;9.10;;;;;;;;;;107335;1253;61263;-81
2023/06/19 05:01:13;;;;;;;14.90;10.10;;;;;;;;;;107020;1255;61244;-81
2023/06/19 05:03:40;;;;;;;10.50;8.80;;;;;;;;;;107049;1251;62181;-82
2023/06/19 05:06:06;;;;;;;13.00;10.20;;;;;;;;;;107028;1252;61395;-82
2023/06/19 05:08:32;;;;;;;14.90;10.90;;;;;;;;;;106972;1253;61323;-79
2023/06/19 05:10:59;;;;;;;13.90;10.20;;;;;;;;;;106865;1253;61341;-82
2023/06/19 05:13:25;;;;;;;13.40;9.80;;;;;;;;;;106963;1253;61227;-79
2023/06/19 05:15:52;;;;;;;12.90;9.90;;;;;;;;;;107049;1251;61291;-79
2023/06/19 05:18:18;;;;;;;16.60;10.00;;;;;;;;;;107060;1253;61267;-79
2023/06/19 05:20:44;;;;;;;11.80;9.10;;;;;;;;;;106952;1253;62046;-81
2023/06/19 05:23:11;;;;;;;16.20;9.40;;;;;;;;;;106993;1256;61804;-82
2023/06/19 05:25:37;;;;;;;14.00;8.60;;;;;;;;;;107177;1253;61283;-80
2023/06/19 05:28:04;;;;;;;12.60;9.80;;;;;;;;;;107398;1253;61320;-82
2023/06/19 05:30:30;;;;;;;10.30;8.20;;;;;;;;;;106949;1253;61349;-82
2023/06/19 05:32:56;;;;;;;10.30;9.20;;;;;;;;;;107001;1253;61249;-79
2023/06/19 05:35:23;;;;;;;24.50;9.40;;;;;;;;;;107007;1253;61235;-81
2023/06/19 05:37:49;;;;;;;10.80;9.10;;;;;;;;;;106995;1255;61108;-82
2023/06/19 05:40:16;;;;;;;12.20;9.10;;;;;;;;;;106969;1253;61339;-82
2023/06/19 05:42:42;;;;;;;12.90;8.80;;;;;;;;;;106993;1255;61257;-79
2023/06/19 05:45:10;;;;;;;18.50;9.40;;;;;;;;;;106925;1253;61309;-79
2023/06/19 05:47:36;;;;;;;11.90;8.90;;;;;;;;;;107031;1255;61412;-79
2023/06/19 05:50:03;;;;;;;11.40;8.60;;;;;;;;;;107128;1253;61310;-78
2023/06/19 05:52:29;;;;;;;15.10;8.10;;;;;;;;;;107062;1255;61315;-79
2023/06/19 05:54:58;;;;;;;9.90;7.80;;;;;;;;;;106953;1252;61218;-79
2023/06/19 05:57:24;;;;;;;13.50;8.70;;;;;;;;;;106996;1253;62012;-82
2023/06/19 05:59:52;;;;;;;11.50;8.90;;;;;;;;;;107027;1257;61326;-79
2023/06/19 06:02:19;;;;;;;12.60;8.80;;;;;;;;;;107342;1256;61690;-79
2023/06/19 06:04:45;;;;;;;10.40;8.90;;;;;;;;;;108720;1252;61103;-81
2023/06/19 06:07:13;;;;;;;9.80;8.10;;;;;;;;;;109108;1253;59276;-79
2023/06/19 06:09:39;;;;;;;13.00;7.90;;;;;;;;;;106985;1251;62860;-78
2023/06/19 06:12:06;;;;;;;8.50;7.60;;;;;;;;;;107078;1252;61201;-79
2023/06/19 06:14:33;;;;;;;13.10;9.00;;;;;;;;;;107170;1252;61175;-78
2023/06/19 06:16:59;;;;;;;15.60;9.00;;;;;;;;;;107227;1253;61332;-80
2023/06/19 06:19:25;;;;;;;9.60;8.20;;;;;;;;;;107298;1253;59495;-79
2023/06/19 06:21:52;;;;;;;11.30;8.90;;;;;;;;;;107118;1257;59113;-82
2023/06/19 06:24:18;;;;;;;10.10;7.80;;;;;;;;;;107218;1252;61111;-77
2023/06/19 06:26:45;;;;;;;9.00;8.10;;;;;;;;;;106462;1255;61276;-82
2023/06/19 06:29:11;;;;;;;9.00;7.30;;;;;;;;;;106482;1253;61359;-81
2023/06/19 06:31:37;;;;;;;8.10;6.70;;;;;;;;;;106496;1257;61314;-81
2023/06/19 06:34:04;;;;;;;12.80;8.10;;;;;;;;;;106420;1257;61226;-81
2023/06/19 06:36:30;;;;;;;11.20;7.30;;;;;;;;;;106478;1255;61429;-81
2023/06/19 06:38:57;;;;;;;9.10;7.20;;;;;;;;;;107495;1256;61263;-82
2023/06/19 06:41:23;;;;;;;10.10;7.70;;;;;;;;;;107298;1257;61250;-81
2023/06/19 06:43:50;;;;;;;8.40;7.50;;;;;;;;;;107308;1253;61349;-79
2023/06/19 06:46:16;;;;;;;11.90;8.10;;;;;;;;;;107279;1252;61250;-81
2023/06/19 06:48:43;;;;;;;8.70;7.30;;;;;;;;;;107404;1255;61158;-79
2023/06/19 06:51:10;;;;;;;13.90;7.70;;;;;;;;;;107420;1253;62240;-82
2023/06/19 06:53:36;;;;;;;8.80;7.00;;;;;;;;;;107435;1254;61237;-82
2023/06/19 06:56:03;;;;;;;11.00;7.30;;;;;;;;;;107350;1255;62362;-81
2023/06/19 06:58:29;;;;;;;16.40;7.10;;;;;;;;;;107383;1255;61259;-82
2023/06/19 07:00:56;;;;;;;17.20;7.10;;;;;;;;;;107412;1251;61339;-82
2023/06/19 07:03:22;;;;;;;8.70;6.00;;;;;;;;;;107336;1256;61305;-79
2023/06/19 07:05:49;;;;;;;6.50;5.60;;;;;;;;;;107285;1253;61277;-79
2023/06/19 07:08:15;;;;;;;7.30;6.00;;;;;;;;;;107179;1253;164313;-82
2023/06/19 07:10:42;;;;;;;6.00;5.20;;;;;;;;;;107377;1253;61379;-81
2023/06/19 07:13:08;;;;;;;7.60;5.70;;;;;;;;;;107351;1255;61260;-79
2023/06/19 07:15:34;;;;;;;5.70;5.10;;;;;;;;;;107454;1255;61241;-82
2023/06/19 07:18:01;;;;;;;7.20;5.40;;;;;;;;;;107377;1256;61201;-79
2023/06/19 07:20:27;;;;;;;7.30;5.10;;;;;;;;;;107462;1255;61164;-79
2023/06/19 07:22:54;;;;;;;10.50;6.00;;;;;;;;;;107219;1255;61220;-79
2023/06/19 07:25:20;;;;;;;13.20;10.80;;;;;;;;;;107569;1255;59475;-79
2023/06/19 07:27:46;;;;;;;12.10;7.50;;;;;;;;;;108579;1255;59154;-82
2023/06/19 07:30:13;;;;;;;11.10;8.80;;;;;;;;;;109371;1254;59217;-83
2023/06/19 07:32:40;;;;;;;7.70;6.40;;;;;;;;;;109382;1253;59224;-80
2023/06/19 07:35:07;;;;;;;14.10;7.50;;;;;;;;;;109430;1252;58946;-80
2023/06/19 07:37:33;;;;;;;8.10;5.00;;;;;;;;;;109423;1252;59233;-80
2023/06/19 07:40:00;;;;;;;5.70;5.10;;;;;;;;;;109424;1253;59110;-83
2023/06/19 07:42:26;;;;;;;8.70;5.00;;;;;;;;;;109021;1255;61452;-82
2023/06/19 07:44:53;;;;;;;6.10;5.50;;;;;;;;;;107280;1253;61232;-80
2023/06/19 07:47:20;;;;;;;5.90;4.70;;;;;;;;;;107260;1257;59936;-79
2023/06/19 07:49:46;;;;;;;5.70;5.00;;;;;;;;;;109480;1255;59236;-80
2023/06/19 07:52:14;;;;;;;5.40;4.90;;;;;;;;;;109394;1256;59261;-80
2023/06/19 07:54:50;;;;;;;36.40;7.60;;;;;;;;;;109394;1254;59097;-83
2023/06/19 07:57:16;;;;;;;7.40;4.90;;;;;;;;;;109431;1254;59109;-82
2023/06/19 07:59:44;;;;;;;6.00;4.30;;;;;;;;;;109431;1251;60143;-80
2023/06/19 08:02:11;;;;;;;6.00;4.90;;;;;;;;;;109422;1255;59390;-80
2023/06/19 08:04:37;;;;;;;8.10;4.50;;;;;;;;;;109413;1254;59342;-83
2023/06/19 08:07:03;;;;;;;6.10;3.90;;;;;;;;;;109401;1253;58970;-83
2023/06/19 08:09:30;;;;;;;5.80;4.90;;;;;;;;;;109420;1252;59107;-83
2023/06/19 08:11:56;;;;;;;5.30;3.80;;;;;;;;;;109275;1254;58845;-81
2023/06/19 08:14:23;;;;;;;6.10;3.90;;;;;;;;;;107352;1254;61203;-81
2023/06/19 08:16:49;;;;;;;4.20;3.40;;;;;;;;;;107196;1257;61253;-84
2023/06/19 08:19:16;;;;;;;4.20;3.50;;;;;;;;;;107295;1256;61242;-84
2023/06/19 08:21:42;;;;;;;5.40;3.60;;;;;;;;;;107281;1255;60105;-83
2023/06/19 08:24:08;;;;;;;3.70;3.00;;;;;;;;;;107237;1256;61349;-81
2023/06/19 08:26:35;;;;;;;5.50;3.50;;;;;;;;;;107186;1254;61274;-80
2023/06/19 08:29:01;;;;;;;4.60;3.20;;;;;;;;;;107345;1254;61769;-81
2023/06/19 08:31:28;;;;;;;5.20;3.40;;;;;;;;;;107408;1256;61351;-81
2023/06/19 08:33:55;;;;;;;4.20;3.80;;;;;;;;;;107626;1251;59145;-81
2023/06/19 08:36:21;;;;;;;5.50;3.40;;;;;;;;;;107181;1254;61053;-81
2023/06/19 08:38:49;;;;;;;3.80;3.30;;;;;;;;;;107508;1255;61282;-84
2023/06/19 08:41:16;;;;;;;3.80;2.90;;;;;;;;;;107540;1255;62415;-84
2023/06/19 08:43:42;;;;;;;5.00;4.40;;;;;;;;;;107323;1254;61229;-84
2023/06/19 08:46:13;;;;;;;4.40;3.60;;;;;;;;;;107263;1252;59153;-84
2023/06/19 08:48:40;;;;;;;4.30;3.50;;;;;;;;;;107437;1252;62451;-84
2023/06/19 08:51:06;;;;;;;6.80;3.50;;;;;;;;;;107220;1253;61172;-81
2023/06/19 08:53:33;;;;;;;5.90;3.80;;;;;;;;;;107503;1254;60894;-84
2023/06/19 08:56:00;;;;;;;7.20;4.00;;;;;;;;;;107444;1254;61350;-80
2023/06/19 08:58:26;;;;;;;4.50;3.80;;;;;;;;;;107210;1254;59821;-83
2023/06/19 09:00:53;;;;;;;5.40;3.60;;;;;;;;;;107331;1254;59735;-81
2023/06/19 09:03:21;;;;;;;3.60;3.20;;;;;;;;;;107284;1254;61119;-81
2023/06/19 09:05:51;;;;;;;4.20;3.40;;;;;;;;;;107479;1254;61148;-84
2023/06/19 09:08:18;;;;;;;5.80;3.50;;;;;;;;;;107651;1255;59538;-80
2023/06/19 09:11:13;;;;;;;4.20;3.70;;;;;;;;;;107527;1254;61222;-84
2023/06/19 09:13:40;;;;;;;5.70;3.60;;;;;;;;;;107480;1256;62932;-83
2023/06/19 09:16:07;;;;;;;5.10;3.30;;;;;;;;;;107474;1256;61241;-83
2023/06/19 09:18:43;;;;;;;3.90;3.20;;;;;;;;;;107493;1253;61161;-80
2023/06/19 09:21:17;;;;;;;3.60;3.30;;;;;;;;;;107390;1252;61315;-80
2023/06/19 09:23:45;;;;;;;3.90;3.40;;;;;;;;;;107320;1252;61217;-81
2023/06/19 09:26:14;;;;;;;4.90;3.40;;;;;;;;;;107108;1254;62909;-81
2023/06/19 09:28:40;;;;;;;4.10;2.90;;;;;;;;;;107259;1256;61382;-85
2023/06/19 09:31:07;;;;;;;6.60;3.90;;;;;;;;;;107207;1257;61184;-84
2023/06/19 09:33:34;;;;;;;4.40;3.30;;;;;;;;;;107271;1253;59401;-81
2023/06/19 09:36:01;;;;;;;7.30;2.80;;;;;;;;;;107122;1256;61561;-84
2023/06/19 09:38:28;;;;;;;3.20;2.90;;;;;;;;;;107352;1253;62416;-84
2023/06/19 09:40:56;;;;;;;5.00;3.60;;;;;;;;;;107250;1257;61219;-81
2023/06/19 09:43:24;;;;;;;4.60;3.00;;;;;;;;;;107211;1256;61240;-83
2023/06/19 09:45:50;;;;;;;5.70;2.90;;;;;;;;;;107112;1254;61158;-81
2023/06/19 09:48:18;;;;;;;5.00;3.40;;;;;;;;;;107233;1254;61363;-81
2023/06/19 09:50:45;;;;;;;3.50;3.00;;;;;;;;;;107586;1256;62814;-80
2023/06/19 09:53:12;;;;;;;4.80;3.60;;;;;;;;;;107487;1257;61215;-81
2023/06/19 09:55:38;;;;;;;3.60;3.20;;;;;;;;;;107584;1254;61202;-84
2023/06/19 09:58:05;;;;;;;3.90;3.20;;;;;;;;;;107654;1253;61362;-84
2023/06/19 10:00:32;;;;;;;3.40;3.10;;;;;;;;;;107657;1254;59402;-81
2023/06/19 10:03:00;;;;;;;12.80;3.20;;;;;;;;;;107784;1252;62568;-80
2023/06/19 10:05:30;;;;;;;4.80;3.10;;;;;;;;;;107700;1254;61316;-84
2023/06/19 10:08:00;;;;;;;8.50;3.10;;;;;;;;;;107478;1251;61298;-81
2023/06/19 10:10:27;;;;;;;4.30;3.20;;;;;;;;;;107405;1253;61312;-81
2023/06/19 10:12:55;;;;;;;4.20;3.60;;;;;;;;;;107248;1254;61259;-81
2023/06/19 10:15:25;;;;;;;5.10;3.40;;;;;;;;;;107158;1254;61949;-81
2023/06/19 10:18:12;;;;;;;9.40;3.00;;;;;;;;;;106931;1254;61357;-83
2023/06/19 10:20:39;;;;;;;3.00;2.70;;;;;;;;;;107117;1254;61221;-81
2023/06/19 10:23:07;;;;;;;5.00;3.10;;;;;;;;;;107096;1251;61269;-82
2023/06/19 10:25:34;;;;;;;4.00;3.10;;;;;;;;;;106912;1254;61140;-84
2023/06/19 10:28:01;;;;;;;3.70;3.30;;;;;;;;;;107067;1254;61917;-84
2023/06/19 10:30:29;;;;;;;4.00;2.90;;;;;;;;;;107193;1254;61288;-84
2023/06/19 10:32:55;;;;;;;5.00;2.90;;;;;;;;;;107049;1254;61200;-82
2023/06/19 10:35:21;;;;;;;3.20;2.90;;;;;;;;;;107112;1255;61250;-81
2023/06/19 10:37:48;;;;;;;9.20;3.30;;;;;;;;;;107017;1254;61256;-85
2023/06/19 10:40:15;;;;;;;5.60;2.80;;;;;;;;;;107070;1254;62855;-82
2023/06/19 10:42:42;;;;;;;5.20;3.00;;;;;;;;;;107116;1255;61031;-82
2023/06/19 10:45:09;;;;;;;6.30;3.50;;;;;;;;;;107013;1254;61301;-81
2023/06/19 10:47:37;;;;;;;3.20;2.60;;;;;;;;;;106941;1253;59605;-85
2023/06/19 10:50:04;;;;;;;3.90;3.10;;;;;;;;;;107085;1254;61312;-86
2023/06/19 10:52:30;;;;;;;4.00;2.50;;;;;;;;;;107047;1253;61338;-82
2023/06/19 10:54:56;;;;;;;4.50;2.90;;;;;;;;;;106887;1254;61263;-81
2023/06/19 10:57:29;;;;;;;3.70;2.70;;;;;;;;;;106903;1253;61257;-84
2023/06/19 10:59:56;;;;;;;3.70;2.60;;;;;;;;;;107135;1254;61186;-81
2023/06/19 11:02:22;;;;;;;5.30;3.30;;;;;;;;;;107074;1253;61516;-85
2023/06/19 11:04:49;;;;;;;3.00;2.60;;;;;;;;;;106995;1254;59238;-85
2023/06/19 11:07:15;;;;;;;3.50;2.90;;;;;;;;;;106970;1256;61282;-82
2023/06/19 11:09:42;;;;;;;4.60;2.80;;;;;;;;;;107262;1254;61396;-85
2023/06/19 11:12:08;;;;;;;3.30;3.00;;;;;;;;;;107195;1254;61270;-84
2023/06/19 11:14:39;;;;;;;3.60;2.90;;;;;;;;;;107101;1254;61266;-81
2023/06/19 11:17:06;;;;;;;3.20;2.60;;;;;;;;;;106911;1254;63038;-82
2023/06/19 11:19:35;;;;;;;4.40;2.80;;;;;;;;;;106980;1256;59634;-85
2023/06/19 11:22:03;;;;;;;7.00;3.40;;;;;;;;;;106960;1254;61175;-84
2023/06/19 11:24:29;;;;;;;4.40;2.60;;;;;;;;;;106915;1254;62293;-84
2023/06/19 11:26:56;;;;;;;2.80;2.50;;;;;;;;;;106961;1252;62008;-81
2023/06/19 11:29:23;;;;;;;9.90;3.50;;;;;;;;;;107123;1254;61841;-81
2023/06/19 11:31:49;;;;;;;3.40;2.60;;;;;;;;;;107136;1254;61375;-84
2023/06/19 11:34:16;;;;;;;2.70;2.50;;;;;;;;;;106935;1254;62291;-82
2023/06/19 11:36:43;;;;;;;3.10;2.60;;;;;;;;;;106949;1256;62297;-84
2023/06/19 11:39:10;;;;;;;6.90;3.00;;;;;;;;;;107042;1252;61154;-84
2023/06/19 11:41:37;;;;;;;3.20;2.40;;;;;;;;;;106977;1256;61744;-81
2023/06/19 11:44:04;;;;;;;3.80;3.10;;;;;;;;;;107183;1257;61140;-81
2023/06/19 11:46:30;;;;;;;3.40;2.70;;;;;;;;;;109340;1252;60131;-82
2023/06/19 11:55:23;;;;;;;2.80;2.30;;;;;;;;;;107114;1254;62792;-82
2023/06/19 11:57:49;;;;;;;2.10;1.90;;;;;;;;;;107388;1256;60265;-84
2023/06/19 12:00:16;;;;;;;2.90;2.60;;;;;;;;;;107331;1256;59627;-84
2023/06/19 12:02:43;;;;;;;3.20;2.70;;;;;;;;;;107221;1254;61232;-82
2023/06/19 12:05:10;;;;;;;;;;;;;;;;;;107269;1251;61268;-82
2023/06/19 12:07:36;;;;;;;3.80;2.30;;;;;;;;;;107304;1256;63021;-81
2023/06/19 12:10:09;;;;;;;3.10;2.60;;;;;;;;;;107483;1254;61341;-85
2023/06/19 12:12:37;;;;;;;2.90;2.60;;;;;;;;;;107411;1254;61190;-82
2023/06/19 12:15:04;;;;;;;3.00;2.70;;;;;;;;;;107375;1253;61292;-81
2023/06/19 12:17:30;;;;;;;4.60;2.60;;;;;;;;;;107314;1253;59367;-81
2023/06/19 12:19:56;;;;;;;4.80;2.80;;;;;;;;;;107407;1253;60696;-84
2023/06/19 12:22:23;;;;;;;5.00;2.60;;;;;;;;;;107379;1253;61138;-81
2023/06/19 12:24:49;;;;;;;3.40;3.10;;;;;;;;;;107274;1252;61279;-85
2023/06/19 12:27:16;;;;;;;3.80;2.80;;;;;;;;;;107267;1253;61295;-84
2023/06/19 12:29:42;;;;;;;4.30;2.40;;;;;;;;;;107457;1253;60881;-82
2023/06/19 12:32:09;;;;;;;4.70;2.60;;;;;;;;;;107284;1253;59976;-81
2023/06/19 12:34:35;;;;;;;4.70;2.60;;;;;;;;;;107395;1255;61194;-81
2023/06/19 12:37:02;;;;;;;3.60;2.40;;;;;;;;;;107316;1253;61128;-81
2023/06/19 12:39:29;;;;;;;4.10;2.60;;;;;;;;;;107234;1251;61244;-84
2023/06/19 12:41:55;;;;;;;5.70;2.80;;;;;;;;;;107428;1254;61166;-81
2023/06/19 12:44:22;;;;;;;4.40;2.40;;;;;;;;;;107496;1253;59314;-82
2023/06/19 12:46:48;;;;;;;3.90;2.70;;;;;;;;;;107357;1253;61202;-85
2023/06/19 12:49:14;;;;;;;3.70;2.40;;;;;;;;;;107541;1250;61138;-82
2023/06/19 12:51:41;;;;;;;4.00;3.00;;;;;;;;;;107387;1253;61260;-82
2023/06/19 12:54:07;;;;;;;3.40;2.60;;;;;;;;;;107215;1253;61137;-82
2023/06/19 12:56:34;;;;;;;5.30;3.00;;;;;;;;;;109195;1252;59347;-84
2023/06/19 12:59:00;;;;;;;4.10;2.80;;;;;;;;;;109415;1252;59139;-84
2023/06/19 13:01:26;;;;;;;2.90;2.50;;;;;;;;;;108270;1252;61253;-84
2023/06/19 13:03:53;;;;;;;2.80;2.50;;;;;;;;;;107285;1251;61333;-84
2023/06/19 13:06:19;;;;;;;4.30;2.90;;;;;;;;;;107147;1253;61382;-84
2023/06/19 13:08:46;;;;;;;4.80;2.80;;;;;;;;;;107333;1255;61326;-84
2023/06/19 13:11:12;;;;;;;4.20;3.00;;;;;;;;;;107320;1255;61154;-84
2023/06/19 13:13:39;;;;;;;5.10;2.70;;;;;;;;;;107316;1251;61298;-81
2023/06/19 13:16:05;;;;;;;3.10;2.80;;;;;;;;;;107362;1253;61346;-81
2023/06/19 13:18:31;;;;;;;3.80;2.90;;;;;;;;;;107536;1253;61237;-81
2023/06/19 13:20:58;;;;;;;4.60;3.20;;;;;;;;;;107627;1252;61789;-84
2023/06/19 13:23:24;;;;;;;4.00;2.80;;;;;;;;;;107601;1253;60847;-81
2023/06/19 13:25:50;;;;;;;6.50;3.30;;;;;;;;;;107365;1253;61263;-83
2023/06/19 13:28:17;;;;;;;3.50;2.70;;;;;;;;;;107442;1253;59955;-84
2023/06/19 13:30:44;;;;;;;4.10;3.30;;;;;;;;;;107483;1253;59692;-83
2023/06/19 13:33:11;;;;;;;3.80;2.80;;;;;;;;;;107232;1254;61092;-84
2023/06/19 13:35:37;;;;;;;3.30;2.50;;;;;;;;;;107123;1253;61345;-84
2023/06/19 13:38:04;;;;;;;3.20;2.90;;;;;;;;;;107243;1258;61345;-84
2023/06/19 13:40:30;;;;;;;4.80;2.50;;;;;;;;;;107469;1255;61167;-84
2023/06/19 13:42:57;;;;;;;3.10;2.80;;;;;;;;;;107273;1254;61277;-83
2023/06/19 13:45:23;;;;;;;3.30;2.70;;;;;;;;;;107048;1255;61359;-81
2023/06/19 13:47:49;;;;;;;6.10;3.20;;;;;;;;;;107278;1253;59470;-83
2023/06/19 13:50:18;;;;;;;2.90;2.60;;;;;;;;;;107233;1254;59806;-81
2023/06/19 13:52:45;;;;;;;3.90;3.00;;;;;;;;;;107270;1253;61248;-83
2023/06/19 13:55:13;;;;;;;6.70;3.00;;;;;;;;;;107242;1252;61199;-83
2023/06/19 13:57:40;;;;;;;4.00;2.80;;;;;;;;;;107340;1251;61412;-83
2023/06/19 14:00:07;;;;;;;3.70;3.00;;;;;;;;;;107442;1253;61121;-84
2023/06/19 14:02:33;;;;;;;5.10;2.80;;;;;;;;;;107362;1254;61106;-81
2023/06/19 14:05:00;;;;;;;3.60;2.80;;;;;;;;;;107297;1253;61375;-84
2023/06/19 14:07:26;;;;;;;5.00;2.90;;;;;;;;;;107166;1252;59205;-81
2023/06/19 14:09:54;;;;;;;4.90;2.90;;;;;;;;;;107367;1251;61241;-81
2023/06/19 14:12:21;;;;;;;;;;;;;;;;;;107350;1255;61257;-83
2023/06/19 14:14:47;;;;;;;4.70;3.40;;;;;;;;;;107119;1253;61240;-81
2023/06/19 14:17:14;;;;;;;6.80;2.90;;;;;;;;;;107072;1252;61297;-81
2023/06/19 14:19:40;;;;;;;5.80;3.40;;;;;;;;;;107496;1251;61184;-84
2023/06/19 14:22:07;;;;;;;4.90;3.10;;;;;;;;;;107229;1255;62291;-81
2023/06/19 14:24:33;;;;;;;3.70;3.20;;;;;;;;;;108974;1251;61212;-82
2023/06/19 14:26:59;;;;;;;5.80;3.10;;;;;;;;;;109153;1253;61360;-84